createdAt,value
2019-05-30T00:00:16.800Z,72.44873
2019-05-30T00:01:07.816Z,72.55249
2019-05-30T00:02:07.809Z,72.55249
2019-05-30T00:03:07.923Z,72.44873
2019-05-30T00:04:07.893Z,72.344971
2019-05-30T00:05:07.971Z,72.344971
2019-05-30T00:06:08.055Z,72.143555
2019-05-30T00:07:10.907Z,72.44873
2019-05-30T00:08:08.078Z,72.753906
2019-05-30T00:09:08.094Z,72.44873
2019-05-30T00:10:08.123Z,71.734619
2019-05-30T00:11:08.101Z,71.936035
2019-05-30T00:12:08.264Z,70.983887
2019-05-30T00:13:08.469Z,71.496582
2019-05-30T00:14:08.529Z,70.983887
2019-05-30T00:15:08.587Z,70.983887
2019-05-30T00:16:08.622Z,71.191406
2019-05-30T00:17:08.766Z,71.087646
2019-05-30T00:18:08.841Z,70.373535
2019-05-30T00:19:08.835Z,70.269775
2019-05-30T00:20:08.982Z,69.659424
2019-05-30T00:21:09.014Z,70.172119
2019-05-30T00:22:09.050Z,69.934082
2019-05-30T00:23:09.304Z,70.037842
2019-05-30T00:24:09.162Z,69.628906
2019-05-30T00:25:09.170Z,69.726562
2019-05-30T00:26:09.186Z,69.830322
2019-05-30T00:27:10.284Z,69.726562
2019-05-30T00:28:09.280Z,68.811035
2019-05-30T00:29:09.333Z,69.116211
2019-05-30T00:30:23.043Z,69.32373
2019-05-30T00:31:11.017Z,68.609619
2019-05-30T00:32:09.531Z,68.371582
2019-05-30T00:33:09.599Z,68.371582
2019-05-30T00:34:09.597Z,68.780518
2019-05-30T00:35:09.742Z,68.371582
2019-05-30T00:36:09.891Z,68.780518
2019-05-30T00:37:09.881Z,67.553711
2019-05-30T00:38:09.917Z,67.962646
2019-05-30T00:39:09.930Z,67.86499
2019-05-30T00:40:09.912Z,67.553711
2019-05-30T00:41:10.088Z,67.553711
2019-05-30T00:42:10.084Z,67.86499
2019-05-30T00:43:10.284Z,67.352295
2019-05-30T00:44:10.304Z,67.657471
2019-05-30T00:45:20.380Z,67.456055
2019-05-30T00:46:10.306Z,66.741943
2019-05-30T00:47:10.321Z,66.845703
2019-05-30T00:48:10.465Z,66.638184
2019-05-30T00:49:10.496Z,66.943359
2019-05-30T00:50:10.566Z,66.638184
2019-05-30T00:51:10.598Z,65.826416
2019-05-30T00:52:10.782Z,66.131592
2019-05-30T00:53:10.860Z,66.638184
2019-05-30T00:54:11.878Z,66.027832
2019-05-30T00:55:10.931Z,65.997314
2019-05-30T00:56:10.944Z,66.503906
2019-05-30T00:57:11.017Z,66.943359
2019-05-30T00:58:11.009Z,66.333008
2019-05-30T00:59:11.175Z,66.333008
2019-05-30T01:00:11.207Z,66.19873
2019-05-30T01:01:11.189Z,66.229248
2019-05-30T01:02:11.325Z,65.722656
2019-05-30T01:03:11.513Z,66.131592
2019-05-30T01:04:11.486Z,65.722656
2019-05-30T01:05:11.485Z,65.893555
2019-05-30T01:06:11.466Z,65.692139
2019-05-30T01:07:11.480Z,66.19873
2019-05-30T01:08:11.529Z,66.19873
2019-05-30T01:09:11.578Z,65.795898
2019-05-30T01:10:11.641Z,65.893555
2019-05-30T01:11:11.686Z,66.30249
2019-05-30T01:12:11.756Z,65.588379
2019-05-30T01:13:11.822Z,65.997314
2019-05-30T01:14:12.963Z,66.503906
2019-05-30T01:15:11.980Z,65.893555
2019-05-30T01:16:11.974Z,66.503906
2019-05-30T01:17:11.975Z,65.795898
2019-05-30T01:18:11.974Z,65.386963
2019-05-30T01:19:12.020Z,66.19873
2019-05-30T01:20:12.175Z,66.101074
2019-05-30T01:21:12.182Z,66.101074
2019-05-30T01:22:12.205Z,66.19873
2019-05-30T01:23:12.245Z,66.19873
2019-05-30T01:24:12.283Z,65.386963
2019-05-30T01:25:12.323Z,65.283203
2019-05-30T01:26:12.334Z,65.490723
2019-05-30T01:27:12.316Z,65.283203
2019-05-30T01:28:12.506Z,65.997314
2019-05-30T01:29:12.583Z,65.588379
2019-05-30T01:30:12.745Z,65.081787
2019-05-30T01:31:12.758Z,65.490723
2019-05-30T01:32:12.926Z,65.588379
2019-05-30T01:33:13.002Z,65.588379
2019-05-30T01:34:13.148Z,65.692139
2019-05-30T01:35:13.194Z,65.490723
2019-05-30T01:36:13.234Z,66.101074
2019-05-30T01:37:13.240Z,65.386963
2019-05-30T01:38:13.373Z,65.795898
2019-05-30T01:39:13.516Z,65.997314
2019-05-30T01:40:13.641Z,65.997314
2019-05-30T01:41:16.832Z,65.795898
2019-05-30T01:42:13.881Z,66.101074
2019-05-30T01:43:13.914Z,65.490723
2019-05-30T01:44:13.901Z,65.692139
2019-05-30T01:45:14.073Z,65.997314
2019-05-30T01:46:14.072Z,65.893555
2019-05-30T01:47:14.100Z,65.893555
2019-05-30T01:48:14.108Z,65.692139
2019-05-30T01:49:14.099Z,65.490723
2019-05-30T01:50:14.155Z,65.795898
2019-05-30T01:51:14.168Z,65.997314
2019-05-30T01:52:14.158Z,65.692139
2019-05-30T01:53:14.175Z,65.692139
2019-05-30T01:54:14.323Z,66.101074
2019-05-30T01:55:14.333Z,65.765381
2019-05-30T01:56:14.448Z,66.30249
2019-05-30T01:57:14.433Z,66.19873
2019-05-30T01:58:14.596Z,65.692139
2019-05-30T01:59:14.726Z,65.692139
2019-05-30T02:00:20.452Z,65.795898
2019-05-30T02:01:23.943Z,65.692139
2019-05-30T02:02:14.910Z,66.19873
2019-05-30T02:03:14.917Z,65.893555
2019-05-30T02:04:15.038Z,66.30249
2019-05-30T02:05:15.027Z,65.997314
2019-05-30T02:06:15.175Z,65.966797
2019-05-30T02:07:15.150Z,65.966797
2019-05-30T02:08:15.317Z,65.863037
2019-05-30T02:09:15.285Z,66.271973
2019-05-30T02:10:15.423Z,65.588379
2019-05-30T02:11:15.609Z,66.271973
2019-05-30T02:12:15.611Z,66.375732
2019-05-30T02:13:15.757Z,66.271973
2019-05-30T02:14:15.897Z,66.680908
2019-05-30T02:15:16.043Z,66.40625
2019-05-30T02:16:16.220Z,66.271973
2019-05-30T02:17:16.177Z,66.577148
2019-05-30T02:18:16.309Z,66.30249
2019-05-30T02:19:16.437Z,65.997314
2019-05-30T02:20:16.562Z,65.997314
2019-05-30T02:21:16.729Z,66.40625
2019-05-30T02:22:16.716Z,66.503906
2019-05-30T02:23:16.856Z,66.815186
2019-05-30T02:24:16.999Z,66.607666
2019-05-30T02:25:16.985Z,66.912842
2019-05-30T02:26:17.163Z,66.711426
2019-05-30T02:27:17.287Z,66.503906
2019-05-30T02:28:18.405Z,67.120361
2019-05-30T02:29:17.548Z,66.503906
2019-05-30T02:30:17.676Z,66.815186
2019-05-30T02:31:35.057Z,67.321777
2019-05-30T02:32:18.764Z,67.425537
2019-05-30T02:33:17.854Z,67.321777
2019-05-30T02:34:17.918Z,67.626953
2019-05-30T02:35:17.969Z,67.120361
2019-05-30T02:36:18.041Z,66.815186
2019-05-30T02:37:18.067Z,67.321777
2019-05-30T02:38:18.089Z,67.120361
2019-05-30T02:39:18.143Z,67.218018
2019-05-30T02:40:18.216Z,66.815186
2019-05-30T02:41:18.242Z,66.815186
2019-05-30T02:42:18.324Z,67.730713
2019-05-30T02:43:18.388Z,67.321777
2019-05-30T02:44:18.452Z,67.321777
2019-05-30T02:45:18.498Z,67.626953
2019-05-30T02:46:18.564Z,67.828369
2019-05-30T02:47:22.413Z,66.912842
2019-05-30T02:48:18.758Z,67.218018
2019-05-30T02:49:18.828Z,67.016602
2019-05-30T02:50:18.891Z,67.828369
2019-05-30T02:51:18.954Z,67.730713
2019-05-30T02:52:19.036Z,67.016602
2019-05-30T02:53:19.145Z,66.815186
2019-05-30T02:54:19.191Z,67.425537
2019-05-30T02:55:19.252Z,66.882324
2019-05-30T02:56:19.304Z,67.1875
2019-05-30T02:57:19.411Z,67.388916
2019-05-30T02:58:19.463Z,67.29126
2019-05-30T02:59:19.517Z,67.596436
2019-05-30T03:00:19.574Z,68.005371
2019-05-30T03:01:19.642Z,67.29126
2019-05-30T03:02:19.752Z,67.1875
2019-05-30T03:03:19.816Z,67.1875
2019-05-30T03:04:19.872Z,66.882324
2019-05-30T03:05:19.909Z,67.1875
2019-05-30T03:06:19.977Z,66.577148
2019-05-30T03:07:20.205Z,66.778564
2019-05-30T03:08:20.151Z,66.882324
2019-05-30T03:09:20.201Z,66.680908
2019-05-30T03:10:20.263Z,67.29126
2019-05-30T03:11:20.316Z,67.1875
2019-05-30T03:12:20.389Z,67.053223
2019-05-30T03:13:20.511Z,66.851807
2019-05-30T03:14:20.579Z,66.955566
2019-05-30T03:15:20.631Z,67.053223
2019-05-30T03:16:20.721Z,66.748047
2019-05-30T03:17:20.790Z,66.851807
2019-05-30T03:18:20.885Z,66.955566
2019-05-30T03:19:20.961Z,66.851807
2019-05-30T03:20:23.020Z,66.955566
2019-05-30T03:21:21.068Z,66.955566
2019-05-30T03:22:21.147Z,67.260742
2019-05-30T03:23:21.237Z,67.260742
2019-05-30T03:24:21.395Z,67.462158
2019-05-30T03:25:21.457Z,67.053223
2019-05-30T03:26:21.519Z,67.260742
2019-05-30T03:27:21.597Z,67.260742
2019-05-30T03:28:21.689Z,67.260742
2019-05-30T03:29:21.777Z,67.358398
2019-05-30T03:30:27.822Z,66.955566
2019-05-30T03:31:28.511Z,67.260742
2019-05-30T03:33:37.237Z,66.851807
2019-05-30T03:34:28.104Z,67.663574
2019-05-30T03:35:29.153Z,67.565918
2019-05-30T03:36:29.051Z,67.358398
2019-05-30T03:37:28.355Z,67.663574
2019-05-30T03:38:22.274Z,67.156982
2019-05-30T03:39:22.322Z,67.565918
2019-05-30T03:40:23.542Z,67.462158
2019-05-30T03:41:22.435Z,67.358398
2019-05-30T03:42:22.552Z,67.663574
2019-05-30T03:43:22.692Z,67.663574
2019-05-30T03:44:22.822Z,67.462158
2019-05-30T03:45:22.891Z,67.565918
2019-05-30T03:46:22.958Z,67.663574
2019-05-30T03:47:23.021Z,67.871094
2019-05-30T03:48:23.100Z,67.565918
2019-05-30T03:49:23.254Z,67.663574
2019-05-30T03:50:23.190Z,67.565918
2019-05-30T03:51:23.278Z,67.938232
2019-05-30T03:52:23.398Z,67.834473
2019-05-30T03:53:23.398Z,67.938232
2019-05-30T03:54:23.481Z,67.736816
2019-05-30T03:55:23.461Z,67.834473
2019-05-30T03:56:23.585Z,67.224121
2019-05-30T03:57:23.692Z,68.041992
2019-05-30T03:58:23.811Z,67.529297
2019-05-30T03:59:23.951Z,67.736816
2019-05-30T04:00:23.961Z,67.938232
2019-05-30T04:01:23.970Z,67.327881
2019-05-30T04:02:24.117Z,68.041992
2019-05-30T04:03:24.243Z,67.633057
2019-05-30T04:04:24.422Z,67.431641
2019-05-30T04:05:24.445Z,67.431641
2019-05-30T04:06:24.583Z,66.61377
2019-05-30T04:07:24.702Z,67.022705
2019-05-30T04:08:24.844Z,66.790771
2019-05-30T04:09:25.357Z,66.992188
2019-05-30T04:10:24.869Z,66.888428
2019-05-30T04:11:24.861Z,66.687012
2019-05-30T04:12:24.974Z,67.193604
2019-05-30T04:13:24.983Z,67.095947
2019-05-30T04:14:25.160Z,66.687012
2019-05-30T04:15:25.163Z,66.992188
2019-05-30T04:16:25.265Z,66.583252
2019-05-30T04:17:25.277Z,66.992188
2019-05-30T04:18:25.411Z,66.790771
2019-05-30T04:19:25.517Z,66.485596
2019-05-30T04:20:25.649Z,66.485596
2019-05-30T04:21:25.686Z,66.687012
2019-05-30T04:22:25.832Z,67.602539
2019-05-30T04:23:26.011Z,69.329834
2019-05-30T04:24:26.022Z,69.433594
2019-05-30T04:25:26.154Z,68.719482
2019-05-30T04:26:26.171Z,69.128418
2019-05-30T04:27:26.237Z,69.464111
2019-05-30T04:28:26.342Z,69.055176
2019-05-30T04:29:26.430Z,68.95752
2019-05-30T04:30:26.561Z,69.567871
2019-05-30T04:31:26.566Z,68.95752
2019-05-30T04:32:26.668Z,69.262695
2019-05-30T04:33:32.882Z,69.360352
2019-05-30T04:34:26.911Z,69.464111
2019-05-30T04:35:27.073Z,70.275879
2019-05-30T04:36:27.026Z,70.074463
2019-05-30T04:37:27.107Z,69.262695
2019-05-30T04:38:27.019Z,70.074463
2019-05-30T04:39:27.115Z,69.873047
2019-05-30T04:40:27.190Z,69.055176
2019-05-30T04:41:27.224Z,69.128418
2019-05-30T04:42:27.255Z,69.836426
2019-05-30T04:43:27.252Z,69.433594
2019-05-30T04:44:27.313Z,69.024658
2019-05-30T04:45:28.297Z,69.024658
2019-05-30T04:46:27.345Z,69.836426
2019-05-30T04:47:27.369Z,69.433594
2019-05-30T04:48:27.371Z,69.128418
2019-05-30T04:49:27.385Z,68.719482
2019-05-30T04:50:27.403Z,68.823242
2019-05-30T04:51:27.442Z,69.024658
2019-05-30T04:52:27.463Z,69.128418
2019-05-30T04:53:27.452Z,68.615723
2019-05-30T04:54:27.481Z,68.719482
2019-05-30T04:55:27.559Z,68.414307
2019-05-30T04:56:27.615Z,68.719482
2019-05-30T04:57:27.689Z,68.182373
2019-05-30T04:58:27.824Z,68.383789
2019-05-30T04:59:27.845Z,67.877197
2019-05-30T05:00:27.905Z,67.974854
2019-05-30T05:01:27.997Z,67.974854
2019-05-30T05:02:28.114Z,67.669678
2019-05-30T05:03:43.870Z,68.078613
2019-05-30T05:04:28.273Z,67.877197
2019-05-30T05:05:28.411Z,67.877197
2019-05-30T05:06:28.531Z,68.280029
2019-05-30T05:07:29.587Z,68.249512
2019-05-30T05:08:28.610Z,68.249512
2019-05-30T05:09:28.652Z,67.541504
2019-05-30T05:10:28.680Z,68.658447
2019-05-30T05:11:28.733Z,68.249512
2019-05-30T05:12:28.826Z,67.74292
2019-05-30T05:13:28.899Z,68.048096
2019-05-30T05:14:28.936Z,67.541504
2019-05-30T05:15:29.023Z,67.74292
2019-05-30T05:16:35.222Z,67.236328
2019-05-30T05:17:30.214Z,67.541504
2019-05-30T05:18:29.226Z,67.840576
2019-05-30T05:19:30.270Z,67.63916
2019-05-30T05:20:29.302Z,67.840576
2019-05-30T05:21:29.327Z,67.63916
2019-05-30T05:22:29.361Z,67.712402
2019-05-30T05:23:29.354Z,67.437744
2019-05-30T05:24:29.369Z,67.303467
2019-05-30T05:25:29.384Z,67.504883
2019-05-30T05:26:29.428Z,67.504883
2019-05-30T05:27:29.608Z,67.712402
2019-05-30T05:28:29.628Z,67.407227
2019-05-30T05:29:29.670Z,67.913818
2019-05-30T05:30:29.676Z,68.115234
2019-05-30T05:31:29.693Z,68.218994
2019-05-30T05:32:29.743Z,68.218994
2019-05-30T05:33:29.831Z,68.115234
2019-05-30T05:34:29.856Z,67.810059
2019-05-30T05:35:29.893Z,67.712402
2019-05-30T05:36:29.897Z,68.011475
2019-05-30T05:37:29.934Z,68.011475
2019-05-30T05:38:29.939Z,67.810059
2019-05-30T05:39:29.955Z,68.115234
2019-05-30T05:40:29.966Z,68.011475
2019-05-30T05:41:29.996Z,67.578125
2019-05-30T05:42:30.314Z,67.779541
2019-05-30T05:43:30.047Z,67.779541
2019-05-30T05:44:30.045Z,67.272949
2019-05-30T05:45:30.068Z,67.675781
2019-05-30T05:46:30.072Z,67.675781
2019-05-30T05:47:30.104Z,67.779541
2019-05-30T05:48:30.187Z,67.169189
2019-05-30T05:49:30.190Z,67.272949
2019-05-30T05:50:30.194Z,67.376709
2019-05-30T05:51:30.203Z,67.443848
2019-05-30T05:52:30.210Z,67.645264
2019-05-30T05:53:30.265Z,67.340088
2019-05-30T05:54:30.266Z,67.138672
2019-05-30T05:55:30.267Z,67.340088
2019-05-30T05:56:30.255Z,67.138672
2019-05-30T05:57:30.279Z,66.52832
2019-05-30T05:58:30.310Z,66.63208
2019-05-30T05:59:30.319Z,66.833496
2019-05-30T06:00:30.336Z,67.138672
2019-05-30T06:01:30.375Z,66.601562
2019-05-30T06:02:30.401Z,67.211914
2019-05-30T06:03:30.445Z,67.30957
2019-05-30T06:04:30.474Z,67.004395
2019-05-30T06:05:30.492Z,67.614746
2019-05-30T06:06:31.598Z,67.30957
2019-05-30T06:07:30.522Z,67.510986
2019-05-30T06:08:30.581Z,67.510986
2019-05-30T06:09:30.631Z,66.906738
2019-05-30T06:10:30.611Z,67.41333
2019-05-30T06:11:30.627Z,67.614746
2019-05-30T06:12:30.632Z,67.718506
2019-05-30T06:13:31.665Z,67.30957
2019-05-30T06:14:30.678Z,67.718506
2019-05-30T06:15:30.679Z,67.614746
2019-05-30T06:16:30.687Z,67.889404
2019-05-30T06:17:30.687Z,68.493652
2019-05-30T06:18:30.723Z,67.889404
2019-05-30T06:19:45.255Z,68.09082
2019-05-30T06:20:30.757Z,68.597412
2019-05-30T06:21:30.754Z,68.493652
2019-05-30T06:22:30.781Z,67.889404
2019-05-30T06:23:30.813Z,68.493652
2019-05-30T06:24:30.883Z,68.395996
2019-05-30T06:25:32.840Z,67.987061
2019-05-30T06:26:30.917Z,67.889404
2019-05-30T06:27:30.936Z,67.987061
2019-05-30T06:28:30.939Z,67.382812
2019-05-30T06:29:31.001Z,67.480469
2019-05-30T06:30:31.006Z,67.681885
2019-05-30T06:31:31.036Z,67.889404
2019-05-30T06:32:31.062Z,67.346191
2019-05-30T06:33:31.048Z,67.144775
2019-05-30T06:34:38.742Z,66.8396
2019-05-30T06:35:31.249Z,66.943359
2019-05-30T06:36:31.260Z,67.651367
2019-05-30T06:37:32.281Z,68.261719
2019-05-30T06:38:32.272Z,67.852783
2019-05-30T06:39:31.404Z,68.157959
2019-05-30T06:40:32.232Z,68.768311
2019-05-30T06:41:31.516Z,68.060303
2019-05-30T06:42:31.527Z,67.956543
2019-05-30T06:43:31.708Z,67.956543
2019-05-30T06:44:31.762Z,67.553711
2019-05-30T06:45:31.777Z,67.852783
2019-05-30T06:46:31.816Z,67.755127
2019-05-30T06:47:31.839Z,67.956543
2019-05-30T06:48:31.844Z,68.060303
2019-05-30T06:49:31.897Z,67.852783
2019-05-30T06:50:31.889Z,67.956543
2019-05-30T06:51:31.885Z,68.359375
2019-05-30T06:52:32.133Z,68.157959
2019-05-30T06:53:31.922Z,67.956543
2019-05-30T06:54:31.974Z,67.956543
2019-05-30T06:55:31.983Z,68.359375
2019-05-30T06:56:31.995Z,68.359375
2019-05-30T06:57:31.994Z,68.432617
2019-05-30T06:58:45.469Z,68.939209
2019-05-30T06:59:32.181Z,68.530273
2019-05-30T07:00:32.887Z,67.926025
2019-05-30T07:01:32.312Z,68.328857
2019-05-30T07:02:32.614Z,67.822266
2019-05-30T07:03:32.682Z,68.328857
2019-05-30T07:04:50.013Z,68.432617
2019-05-30T07:05:34.318Z,68.127441
2019-05-30T07:06:33.617Z,68.127441
2019-05-30T07:07:33.359Z,68.634033
2019-05-30T07:08:33.029Z,68.939209
2019-05-30T07:09:32.980Z,68.939209
2019-05-30T07:10:33.093Z,68.634033
2019-05-30T07:11:33.111Z,68.395996
2019-05-30T07:12:33.196Z,68.395996
2019-05-30T07:13:33.688Z,68.499756
2019-05-30T07:14:33.454Z,68.395996
2019-05-30T07:15:34.356Z,68.902588
2019-05-30T07:16:33.537Z,69.006348
2019-05-30T07:17:33.633Z,69.610596
2019-05-30T07:18:35.333Z,69.104004
2019-05-30T07:19:33.638Z,69.207764
2019-05-30T07:20:33.803Z,69.311523
2019-05-30T07:21:33.897Z,69.40918
2019-05-30T07:22:33.853Z,70.019531
2019-05-30T07:23:34.014Z,69.104004
2019-05-30T07:24:34.336Z,68.804932
2019-05-30T07:25:34.076Z,69.207764
2019-05-30T07:26:34.035Z,68.701172
2019-05-30T07:27:34.124Z,68.395996
2019-05-30T07:28:34.160Z,69.006348
2019-05-30T07:29:34.228Z,69.006348
2019-05-30T07:30:34.175Z,68.804932
2019-05-30T07:31:34.347Z,68.701172
2019-05-30T07:32:34.121Z,68.29834
2019-05-30T07:33:34.529Z,68.499756
2019-05-30T07:34:34.256Z,68.670654
2019-05-30T07:35:34.134Z,68.566895
2019-05-30T07:36:34.422Z,68.469238
2019-05-30T07:37:34.372Z,68.536377
2019-05-30T07:38:34.692Z,67.523193
2019-05-30T07:39:36.909Z,67.932129
2019-05-30T07:40:34.805Z,68.334961
2019-05-30T07:41:34.817Z,67.724609
2019-05-30T07:42:34.786Z,67.321777
2019-05-30T07:43:35.162Z,67.828369
2019-05-30T07:44:34.964Z,67.932129
2019-05-30T07:45:35.161Z,68.231201
2019-05-30T07:46:35.119Z,68.231201
2019-05-30T07:47:34.323Z,68.536377
2019-05-30T07:48:35.216Z,68.737793
2019-05-30T07:49:34.611Z,67.858887
2019-05-30T07:50:34.539Z,68.469238
2019-05-30T07:51:34.652Z,68.969727
2019-05-30T07:52:34.825Z,68.969727
2019-05-30T07:53:34.932Z,68.969727
2019-05-30T07:54:35.137Z,69.378662
2019-05-30T07:55:35.149Z,68.566895
2019-05-30T07:56:35.139Z,68.841553
2019-05-30T07:57:34.518Z,69.140625
2019-05-30T07:58:35.303Z,68.634033
2019-05-30T07:59:34.812Z,68.536377
2019-05-30T08:00:35.581Z,69.140625
2019-05-30T08:01:34.758Z,69.042969
2019-05-30T08:02:35.776Z,69.549561
2019-05-30T08:03:34.845Z,69.244385
2019-05-30T08:04:35.683Z,68.908691
2019-05-30T08:05:34.863Z,69.818115
2019-05-30T08:06:35.772Z,70.019531
2019-05-30T08:07:35.109Z,68.908691
2019-05-30T08:08:36.003Z,69.714355
2019-05-30T08:09:35.054Z,70.019531
2019-05-30T08:10:35.812Z,68.804932
2019-05-30T08:11:35.130Z,69.549561
2019-05-30T08:12:36.136Z,69.848633
2019-05-30T08:13:35.229Z,69.848633
2019-05-30T08:14:35.262Z,70.385742
2019-05-30T08:15:36.930Z,70.489502
2019-05-30T08:16:35.454Z,70.385742
2019-05-30T08:17:35.679Z,70.794678
2019-05-30T08:18:35.824Z,70.794678
2019-05-30T08:19:35.972Z,70.690918
2019-05-30T08:20:35.931Z,70.593262
2019-05-30T08:21:36.276Z,70.288086
2019-05-30T08:22:36.157Z,70.08667
2019-05-30T08:23:36.272Z,70.288086
2019-05-30T08:24:36.417Z,70.489502
2019-05-30T08:25:36.520Z,70.690918
2019-05-30T08:26:36.366Z,70.489502
2019-05-30T08:27:36.432Z,70.458984
2019-05-30T08:28:36.366Z,70.556641
2019-05-30T08:29:36.427Z,70.758057
2019-05-30T08:30:36.619Z,70.458984
2019-05-30T08:31:36.777Z,70.758057
2019-05-30T08:32:36.839Z,71.026611
2019-05-30T08:33:35.709Z,70.019531
2019-05-30T08:34:36.649Z,69.616699
2019-05-30T08:35:43.227Z,69.952393
2019-05-30T08:36:37.007Z,70.251465
2019-05-30T08:37:37.149Z,69.647217
2019-05-30T08:38:37.304Z,69.952393
2019-05-30T08:39:37.219Z,70.050049
2019-05-30T08:40:37.392Z,70.355225
2019-05-30T08:41:37.450Z,71.063232
2019-05-30T08:42:38.159Z,71.063232
2019-05-30T08:43:37.490Z,71.234131
2019-05-30T08:44:36.536Z,70.727539
2019-05-30T08:45:37.644Z,70.727539
2019-05-30T08:46:37.837Z,70.825195
2019-05-30T08:47:36.704Z,70.928955
2019-05-30T08:48:36.722Z,70.825195
2019-05-30T08:49:36.791Z,70.422363
2019-05-30T08:50:40.281Z,71.838379
2019-05-30T08:51:36.924Z,70.019531
2019-05-30T08:52:36.990Z,70.623779
2019-05-30T08:53:37.044Z,70.324707
2019-05-30T08:54:37.071Z,70.526123
2019-05-30T08:55:37.104Z,70.623779
2019-05-30T08:56:37.113Z,70.623779
2019-05-30T08:57:37.103Z,70.623779
2019-05-30T08:58:37.202Z,70.794678
2019-05-30T08:59:37.242Z,70.08667
2019-05-30T09:00:37.358Z,70.19043
2019-05-30T09:01:37.759Z,69.885254
2019-05-30T09:02:38.675Z,70.458984
2019-05-30T09:03:38.403Z,70.056152
2019-05-30T09:04:37.915Z,70.257568
2019-05-30T09:05:38.672Z,70.758057
2019-05-30T09:06:37.804Z,70.458984
2019-05-30T09:07:38.243Z,70.556641
2019-05-30T09:08:38.012Z,71.166992
2019-05-30T09:09:38.177Z,70.758057
2019-05-30T09:10:39.140Z,70.959473
2019-05-30T09:11:39.250Z,71.398926
2019-05-30T09:12:39.990Z,71.30127
2019-05-30T09:13:38.890Z,71.905518
2019-05-30T09:14:39.226Z,71.026611
2019-05-30T09:15:39.121Z,71.636963
2019-05-30T09:16:38.119Z,71.533203
2019-05-30T09:17:39.156Z,71.435547
2019-05-30T09:18:39.910Z,72.003174
2019-05-30T09:19:39.718Z,71.30127
2019-05-30T09:20:39.766Z,71.77124
2019-05-30T09:21:39.764Z,70.758057
2019-05-30T09:22:39.675Z,70.861816
2019-05-30T09:23:39.188Z,70.123291
2019-05-30T09:24:40.078Z,70.019531
2019-05-30T09:25:39.939Z,69.586182
2019-05-30T09:26:41.813Z,69.989014
2019-05-30T09:27:39.302Z,70.19043
2019-05-30T09:28:39.320Z,69.18335
2019-05-30T09:29:39.582Z,69.720459
2019-05-30T09:30:39.814Z,69.519043
2019-05-30T09:31:39.805Z,70.220947
2019-05-30T09:32:39.880Z,70.556641
2019-05-30T09:33:40.951Z,70.526123
2019-05-30T09:34:40.176Z,70.623779
2019-05-30T09:35:40.128Z,69.854736
2019-05-30T09:36:39.954Z,69.952393
2019-05-30T09:37:40.461Z,70.257568
2019-05-30T09:38:40.490Z,70.758057
2019-05-30T09:39:40.328Z,70.556641
2019-05-30T09:40:40.772Z,70.355225
2019-05-30T09:41:40.773Z,71.466064
2019-05-30T09:42:41.139Z,70.959473
2019-05-30T09:43:41.139Z,70.6604
2019-05-30T09:44:40.913Z,70.892334
2019-05-30T09:45:41.115Z,71.398926
2019-05-30T09:46:40.944Z,72.106934
2019-05-30T09:47:41.232Z,71.801758
2019-05-30T09:50:20.624Z,71.801758
2019-05-30T09:51:34.455Z,72.814941
2019-05-30T09:52:34.456Z,72.613525
2019-05-30T09:53:34.472Z,72.912598
2019-05-30T09:54:34.505Z,73.321533
2019-05-30T09:55:34.523Z,72.576904
2019-05-30T09:56:34.532Z,72.680664
2019-05-30T09:57:34.516Z,72.88208
2019-05-30T09:58:34.549Z,73.083496
2019-05-30T09:59:34.576Z,72.979736
2019-05-30T10:00:34.577Z,72.979736
2019-05-30T10:01:34.575Z,72.680664
2019-05-30T10:02:34.588Z,72.576904
2019-05-30T10:03:34.575Z,72.576904
2019-05-30T10:04:34.643Z,72.88208
2019-05-30T10:05:34.599Z,72.375488
2019-05-30T10:06:34.754Z,72.979736
2019-05-30T10:07:34.744Z,73.083496
2019-05-30T10:08:34.747Z,72.979736
2019-05-30T10:09:34.869Z,72.77832
2019-05-30T10:10:34.942Z,72.680664
2019-05-30T10:11:34.943Z,72.77832
2019-05-30T10:12:34.941Z,72.77832
2019-05-30T10:13:34.951Z,72.77832
2019-05-30T10:14:35.000Z,72.479248
2019-05-30T10:15:35.019Z,72.271729
2019-05-30T10:16:36.085Z,72.613525
2019-05-30T10:17:36.167Z,72.412109
2019-05-30T10:18:35.174Z,72.711182
2019-05-30T10:19:36.210Z,72.77832
2019-05-30T10:20:35.253Z,72.680664
2019-05-30T10:21:36.339Z,72.576904
2019-05-30T10:22:35.323Z,72.979736
2019-05-30T10:23:36.350Z,72.576904
2019-05-30T10:24:35.359Z,72.479248
2019-05-30T10:25:36.544Z,73.352051
2019-05-30T10:26:36.557Z,72.644043
2019-05-30T10:27:35.680Z,71.368408
2019-05-30T10:28:36.686Z,71.77124
2019-05-30T10:29:35.686Z,72.174072
2019-05-30T10:30:36.763Z,72.174072
2019-05-30T10:31:35.782Z,71.77124
2019-05-30T10:32:35.804Z,71.569824
2019-05-30T10:33:36.802Z,72.174072
2019-05-30T10:34:35.962Z,71.868896
2019-05-30T10:35:37.032Z,72.680664
2019-05-30T10:36:43.680Z,72.680664
2019-05-30T10:37:36.185Z,72.680664
2019-05-30T10:38:36.164Z,72.576904
2019-05-30T10:39:36.204Z,72.338867
2019-05-30T10:40:36.226Z,71.936035
2019-05-30T10:41:36.371Z,71.838379
2019-05-30T10:42:36.408Z,71.734619
2019-05-30T10:43:36.405Z,71.734619
2019-05-30T10:44:36.414Z,71.435547
2019-05-30T10:45:38.666Z,71.801758
2019-05-30T10:46:36.464Z,71.099854
2019-05-30T10:47:36.475Z,71.502686
2019-05-30T10:48:36.473Z,70.892334
2019-05-30T10:49:36.465Z,70.892334
2019-05-30T10:50:36.624Z,70.556641
2019-05-30T10:51:36.714Z,70.056152
2019-05-30T10:52:36.742Z,70.123291
2019-05-30T10:53:37.704Z,69.586182
2019-05-30T10:54:36.748Z,68.981934
2019-05-30T10:55:36.756Z,68.481445
2019-05-30T10:56:36.819Z,69.18335
2019-05-30T10:57:36.917Z,69.250488
2019-05-30T10:58:36.918Z,69.152832
2019-05-30T10:59:36.937Z,68.444824
2019-05-30T11:00:36.952Z,69.451904
2019-05-30T11:01:37.024Z,69.049072
2019-05-30T11:02:37.035Z,68.579102
2019-05-30T11:03:37.041Z,69.720459
2019-05-30T11:04:37.198Z,70.324707
2019-05-30T11:05:38.258Z,69.616699
2019-05-30T11:06:37.281Z,69.317627
2019-05-30T11:07:51.110Z,70.355225
2019-05-30T11:08:38.339Z,70.556641
2019-05-30T11:09:37.338Z,70.458984
2019-05-30T11:10:37.371Z,70.526123
2019-05-30T11:11:37.390Z,70.526123
2019-05-30T11:12:37.447Z,70.324707
2019-05-30T11:13:38.465Z,70.324707
2019-05-30T11:14:37.475Z,70.220947
2019-05-30T11:15:38.483Z,70.19043
2019-05-30T11:16:37.636Z,69.519043
2019-05-30T11:17:38.763Z,70.123291
2019-05-30T11:18:37.900Z,70.220947
2019-05-30T11:19:37.744Z,70.928955
2019-05-30T11:20:37.796Z,70.623779
2019-05-30T11:21:37.824Z,70.965576
2019-05-30T11:22:37.919Z,71.166992
2019-05-30T11:23:37.943Z,71.533203
2019-05-30T11:24:38.064Z,71.063232
2019-05-30T11:25:37.973Z,70.257568
2019-05-30T11:26:38.019Z,70.861816
2019-05-30T11:27:38.078Z,71.063232
2019-05-30T11:28:38.110Z,70.965576
2019-05-30T11:29:38.135Z,70.861816